SUL6861 SBBR-SBGL
Flight info
| Callsign | SUL6861 |
|---|---|
| Flight time | N/A |
| Altitude | 37000 |
| Route | GEPMO UZ24 MAVGU |
| Aircraft | B738/M-SDFGIKLORWX/LB1 |
Departure
| Time | N/A |
|---|---|
| Airport | Presidente Juscelino Kubitschek International Airport (SBBR) |
Arrival
| Time | 2026-04-30 02:17 |
|---|---|
| Airport | Rio Galeão – Tom Jobim International Airport (SBGL) |
| Time | Latitude | Longitude | Altitude | Speed | Heading |
|---|---|---|---|---|---|
| 2026-04-30 01:56 | -22.53894 | -43.51106 | 12773 ft | 358 kts | 126° |
| 2026-04-30 01:57 | -22.55373 | -43.48951 | 12389 ft | 354 kts | 127° |
| 2026-04-30 01:57 | -22.56838 | -43.46829 | 12022 ft | 351 kts | 127° |
| 2026-04-30 01:57 | -22.58295 | -43.44724 | 11658 ft | 347 kts | 127° |
| 2026-04-30 01:57 | -22.59736 | -43.42645 | 11284 ft | 344 kts | 127° |
| 2026-04-30 01:58 | -22.61164 | -43.40587 | 10940 ft | 340 kts | 127° |
| 2026-04-30 01:58 | -22.62579 | -43.38548 | 10588 ft | 337 kts | 127° |
| 2026-04-30 01:58 | -22.63691 | -43.36374 | 10465 ft | 325 kts | 107° |
| 2026-04-30 01:58 | -22.64105 | -43.34027 | 10406 ft | 312 kts | 95° |
| 2026-04-30 01:59 | -22.64406 | -43.29513 | 10267 ft | 290 kts | 93° |
| 2026-04-30 01:59 | -22.64536 | -43.27362 | 10084 ft | 284 kts | 94° |
| 2026-04-30 01:59 | -22.64669 | -43.25238 | 9784 ft | 280 kts | 94° |
| 2026-04-30 02:00 | -22.64807 | -43.23136 | 9331 ft | 279 kts | 94° |
| 2026-04-30 02:00 | -22.64944 | -43.21073 | 8908 ft | 278 kts | 94° |
| 2026-04-30 02:00 | -22.65084 | -43.18997 | 8493 ft | 276 kts | 94° |
| 2026-04-30 02:00 | -22.65226 | -43.16931 | 8083 ft | 274 kts | 94° |
| 2026-04-30 02:01 | -22.65366 | -43.14885 | 7704 ft | 272 kts | 94° |
| 2026-04-30 02:01 | -22.65506 | -43.12853 | 7315 ft | 270 kts | 94° |
| 2026-04-30 02:01 | -22.65643 | -43.10863 | 7151 ft | 257 kts | 94° |
| 2026-04-30 02:01 | -22.65799 | -43.09013 | 7035 ft | 237 kts | 101° |
| 2026-04-30 02:02 | -22.66506 | -43.07475 | 6789 ft | 227 kts | 134° |
| 2026-04-30 02:02 | -22.67772 | -43.06477 | 6360 ft | 228 kts | 154° |
| 2026-04-30 02:02 | -22.69316 | -43.05945 | 5739 ft | 235 kts | 165° |
| 2026-04-30 02:02 | -22.70914 | -43.05489 | 5135 ft | 239 kts | 165° |
| 2026-04-30 02:03 | -22.72530 | -43.05029 | 4505 ft | 241 kts | 167° |
| 2026-04-30 02:03 | -22.74187 | -43.05103 | 3842 ft | 243 kts | 202° |
| 2026-04-30 02:03 | -22.75453 | -43.06255 | 3242 ft | 240 kts | 242° |
| 2026-04-30 02:03 | -22.75879 | -43.07928 | 2984 ft | 222 kts | 262° |
| 2026-04-30 02:04 | -22.76209 | -43.09471 | 2811 ft | 208 kts | 255° |
| 2026-04-30 02:04 | -22.76603 | -43.11000 | 2325 ft | 212 kts | 255° |
| 2026-04-30 02:04 | -22.76983 | -43.12520 | 1805 ft | 208 kts | 256° |
| 2026-04-30 02:04 | -22.77348 | -43.14005 | 1484 ft | 198 kts | 255° |
| 2026-04-30 02:05 | -22.77693 | -43.15410 | 1231 ft | 186 kts | 255° |
| 2026-04-30 02:05 | -22.78014 | -43.16715 | 986 ft | 173 kts | 255° |
| 2026-04-30 02:05 | -22.78300 | -43.17930 | 837 ft | 159 kts | 256° |
| 2026-04-30 02:05 | -22.78533 | -43.19065 | 830 ft | 151 kts | 257° |
| 2026-04-30 02:06 | -22.78751 | -43.20232 | 1143 ft | 163 kts | 262° |
| 2026-04-30 02:06 | -22.78979 | -43.21469 | 1864 ft | 172 kts | 255° |
| 2026-04-30 02:06 | -22.79266 | -43.22782 | 2430 ft | 194 kts | 269° |
| 2026-04-30 02:06 | -22.78860 | -43.24236 | 2788 ft | 216 kts | 306° |
| 2026-04-30 02:07 | -22.77694 | -43.25266 | 3400 ft | 221 kts | 339° |
| 2026-04-30 02:07 | -22.76185 | -43.25447 | 3887 ft | 222 kts | 11° |
| 2026-04-30 02:07 | -22.74860 | -43.24659 | 3964 ft | 220 kts | 46° |
| 2026-04-30 02:07 | -22.73884 | -43.23376 | 3994 ft | 223 kts | 51° |
| 2026-04-30 02:08 | -22.72922 | -43.22042 | 4238 ft | 227 kts | 51° |
| 2026-04-30 02:08 | -22.71952 | -43.20692 | 4830 ft | 228 kts | 51° |
| 2026-04-30 02:08 | -22.70967 | -43.19326 | 4960 ft | 235 kts | 51° |
| 2026-04-30 02:08 | -22.70085 | -43.17814 | 4981 ft | 236 kts | 66° |
| 2026-04-30 02:09 | -22.69516 | -43.16218 | 4968 ft | 218 kts | 67° |
| 2026-04-30 02:09 | -22.68973 | -43.14770 | 4966 ft | 198 kts | 66° |
| 2026-04-30 02:09 | -22.68465 | -43.13460 | 4964 ft | 179 kts | 65° |
| 2026-04-30 02:09 | -22.67988 | -43.12248 | 4989 ft | 174 kts | 65° |
| 2026-04-30 02:10 | -22.67502 | -43.11022 | 5009 ft | 181 kts | 65° |
| 2026-04-30 02:10 | -22.66998 | -43.09758 | 5010 ft | 185 kts | 65° |
| 2026-04-30 02:10 | -22.66577 | -43.08447 | 4983 ft | 186 kts | 85° |
| 2026-04-30 02:10 | -22.66934 | -43.07126 | 4940 ft | 191 kts | 126° |
| 2026-04-30 02:11 | -22.68037 | -43.06350 | 4666 ft | 190 kts | 163° |
| 2026-04-30 02:11 | -22.69290 | -43.05979 | 4376 ft | 183 kts | 165° |
| 2026-04-30 02:11 | -22.70504 | -43.05625 | 4098 ft | 178 kts | 165° |
| 2026-04-30 02:11 | -22.71687 | -43.05277 | 3849 ft | 176 kts | 165° |
| 2026-04-30 02:12 | -22.72888 | -43.04997 | 3594 ft | 178 kts | 181° |
| 2026-04-30 02:12 | -22.74071 | -43.05314 | 3341 ft | 177 kts | 209° |
| 2026-04-30 02:12 | -22.74999 | -43.06173 | 3126 ft | 176 kts | 234° |
| 2026-04-30 02:12 | -22.75498 | -43.07331 | 2814 ft | 164 kts | 254° |
| 2026-04-30 02:13 | -22.75807 | -43.08479 | 2561 ft | 155 kts | 256° |
| 2026-04-30 02:13 | -22.76093 | -43.09587 | 2347 ft | 152 kts | 256° |
| 2026-04-30 02:13 | -22.76438 | -43.10684 | 2083 ft | 154 kts | 251° |
| 2026-04-30 02:13 | -22.76766 | -43.11743 | 1900 ft | 144 kts | 255° |
| 2026-04-30 02:14 | -22.77038 | -43.12772 | 1710 ft | 142 kts | 256° |
| 2026-04-30 02:14 | -22.77298 | -43.13812 | 1526 ft | 144 kts | 255° |
| 2026-04-30 02:14 | -22.77497 | -43.14871 | 1380 ft | 145 kts | 262° |
| 2026-04-30 02:14 | -22.77680 | -43.15951 | 1145 ft | 145 kts | 254° |
| 2026-04-30 02:15 | -22.77974 | -43.16983 | 949 ft | 143 kts | 253° |
| 2026-04-30 02:15 | -22.78149 | -43.17669 | 832 ft | 141 kts | 255° |
| 2026-04-30 02:15 | -22.78492 | -43.19059 | 552 ft | 142 kts | 252° |
| 2026-04-30 02:15 | -22.78760 | -43.20063 | 413 ft | 140 kts | 254° |
| 2026-04-30 02:16 | -22.79024 | -43.21074 | 224 ft | 140 kts | 252° |
| 2026-04-30 02:16 | -22.79295 | -43.22079 | 51 ft | 137 kts | 253° |
| 2026-04-30 02:16 | -22.79534 | -43.23009 | 28 ft | 111 kts | 255° |
| 2026-04-30 02:16 | -22.79702 | -43.23649 | 26 ft | 63 kts | 254° |
| 2026-04-30 02:17 | -22.79797 | -43.23897 | 25 ft | 50 kts | 237° |
| 2026-04-30 02:17 | -22.80043 | -43.24276 | 25 ft | 42 kts | 234° |
| 2026-04-30 02:17 | -22.80074 | -43.24323 | 27 ft | 0 kts | 235° |
| 2026-04-30 02:17 | -22.80076 | -43.24326 | 27 ft | 1 kts | 235° |
| 2026-04-30 02:18 | -22.80089 | -43.24345 | 25 ft | 5 kts | 234° |
| 2026-04-30 02:18 | -22.80116 | -43.24386 | 25 ft | 8 kts | 234° |
| 2026-04-30 02:18 | -22.80147 | -43.24453 | 26 ft | 12 kts | 252° |
| 2026-04-30 02:18 | -22.80173 | -43.24547 | 26 ft | 15 kts | 255° |
| 2026-04-30 02:19 | -22.80204 | -43.24662 | 25 ft | 17 kts | 253° |
| 2026-04-30 02:19 | -22.80241 | -43.24794 | 28 ft | 19 kts | 253° |
| 2026-04-30 02:19 | -22.80278 | -43.24944 | 25 ft | 22 kts | 255° |
| 2026-04-30 02:19 | -22.80319 | -43.25101 | 28 ft | 21 kts | 254° |
| 2026-04-30 02:20 | -22.80365 | -43.25251 | 25 ft | 21 kts | 246° |
| 2026-04-30 02:20 | -22.80448 | -43.25370 | 28 ft | 20 kts | 200° |
| 2026-04-30 02:20 | -22.80580 | -43.25394 | 27 ft | 19 kts | 215° |
| 2026-04-30 02:20 | -22.80688 | -43.25478 | 27 ft | 19 kts | 216° |
| 2026-04-30 02:21 | -22.80794 | -43.25559 | 28 ft | 18 kts | 214° |
| 2026-04-30 02:21 | -22.80896 | -43.25639 | 27 ft | 18 kts | 216° |
| 2026-04-30 02:21 | -22.80993 | -43.25715 | 27 ft | 17 kts | 216° |
| 2026-04-30 02:21 | -22.81086 | -43.25787 | 28 ft | 16 kts | 215° |
| 2026-04-30 02:22 | -22.81183 | -43.25813 | 27 ft | 15 kts | 149° |
| 2026-04-30 02:22 | -22.81249 | -43.25729 | 29 ft | 14 kts | 125° |
| 2026-04-30 02:22 | -22.81305 | -43.25642 | 25 ft | 14 kts | 125° |
| 2026-04-30 02:22 | -22.81359 | -43.25560 | 25 ft | 13 kts | 126° |
| 2026-04-30 02:23 | -22.81412 | -43.25482 | 29 ft | 13 kts | 126° |
| 2026-04-30 02:23 | -22.81462 | -43.25406 | 27 ft | 12 kts | 126° |
| 2026-04-30 02:23 | -22.81508 | -43.25338 | 27 ft | 10 kts | 126° |
| 2026-04-30 02:23 | -22.81543 | -43.25283 | 28 ft | 9 kts | 125° |
| 2026-04-30 02:24 | -22.81580 | -43.25232 | 27 ft | 8 kts | 140° |
| 2026-04-30 02:24 | -22.81625 | -43.25259 | 25 ft | 8 kts | 224° |
| 2026-04-30 02:24 | -22.81667 | -43.25297 | 25 ft | 8 kts | 217° |
| 2026-04-30 02:24 | -22.81711 | -43.25330 | 28 ft | 7 kts | 206° |
| 2026-04-30 02:25 | -22.81757 | -43.25317 | 25 ft | 7 kts | 139° |
| 2026-04-30 02:25 | -22.81787 | -43.25275 | 27 ft | 7 kts | 124° |
| 2026-04-30 02:25 | -22.81814 | -43.25232 | 27 ft | 7 kts | 125° |
| 2026-04-30 02:25 | -22.81841 | -43.25191 | 25 ft | 7 kts | 126° |
| 2026-04-30 02:26 | -22.81867 | -43.25150 | 25 ft | 6 kts | 125° |
| 2026-04-30 02:26 | -22.81894 | -43.25111 | 28 ft | 6 kts | 125° |
| 2026-04-30 02:26 | -22.81919 | -43.25073 | 26 ft | 6 kts | 125° |
| 2026-04-30 02:26 | -22.81944 | -43.25035 | 26 ft | 6 kts | 125° |
| 2026-04-30 02:27 | -22.81968 | -43.24999 | 25 ft | 6 kts | 126° |
| 2026-04-30 02:27 | -22.81992 | -43.24964 | 26 ft | 6 kts | 126° |
| 2026-04-30 02:27 | -22.82016 | -43.24928 | 29 ft | 6 kts | 126° |
| 2026-04-30 02:27 | -22.82040 | -43.24892 | 25 ft | 6 kts | 125° |
| 2026-04-30 02:28 | -22.82063 | -43.24856 | 30 ft | 6 kts | 125° |
| 2026-04-30 02:28 | -22.82094 | -43.24808 | 25 ft | 10 kts | 125° |
| 2026-04-30 02:28 | -22.82142 | -43.24736 | 25 ft | 14 kts | 126° |
| 2026-04-30 02:28 | -22.82202 | -43.24647 | 25 ft | 14 kts | 126° |
| 2026-04-30 02:29 | -22.82258 | -43.24562 | 27 ft | 14 kts | 126° |
| 2026-04-30 02:29 | -22.82312 | -43.24481 | 25 ft | 13 kts | 126° |
| 2026-04-30 02:29 | -22.82364 | -43.24403 | 26 ft | 13 kts | 126° |
| 2026-04-30 02:29 | -22.82415 | -43.24329 | 25 ft | 12 kts | 126° |
| 2026-04-30 02:30 | -22.82463 | -43.24256 | 27 ft | 12 kts | 121° |
| 2026-04-30 02:30 | -22.82511 | -43.24185 | 26 ft | 11 kts | 137° |
| 2026-04-30 02:30 | -22.82583 | -43.24195 | 27 ft | 11 kts | 212° |
| 2026-04-30 02:30 | -22.82651 | -43.24230 | 25 ft | 11 kts | 187° |
| 2026-04-30 02:31 | -22.82721 | -43.24211 | 25 ft | 10 kts | 157° |
| 2026-04-30 02:31 | -22.82786 | -43.24179 | 29 ft | 10 kts | 155° |
| 2026-04-30 02:31 | -22.82848 | -43.24181 | 29 ft | 10 kts | 231° |
| 2026-04-30 02:31 | -22.82867 | -43.24249 | 25 ft | 9 kts | 242° |
| 2026-04-30 02:32 | -22.82881 | -43.24268 | 29 ft | 9 kts | 225° |